createdAt,value
2019-06-26T00:00:16.340Z,101817.93
2019-06-26T00:02:45.646Z,101821.52
2019-06-26T00:05:15.055Z,101818.23
2019-06-26T00:07:44.346Z,101825.86
2019-06-26T00:10:14.359Z,101826.25
2019-06-26T00:12:43.741Z,101832.52
2019-06-26T00:15:13.496Z,101831.78
2019-06-26T00:17:42.872Z,101831.83
2019-06-26T00:20:12.983Z,101834.54
2019-06-26T00:22:42.290Z,101836.30
2019-06-26T00:25:11.628Z,101835.64
2019-06-26T00:27:40.910Z,101841.97
2019-06-26T00:30:10.429Z,101841.09
2019-06-26T00:32:39.724Z,101846.57
2019-06-26T00:35:09.173Z,101849.17
2019-06-26T00:37:38.463Z,101847.02
2019-06-26T00:40:08.298Z,101854.73
2019-06-26T00:42:37.582Z,101847.81
2019-06-26T00:45:07.542Z,101845.86
2019-06-26T00:47:36.820Z,101851.50
2019-06-26T00:50:07.357Z,101855.84
2019-06-26T00:52:36.687Z,101857.72
2019-06-26T00:55:06.745Z,101851.28
2019-06-26T00:57:36.044Z,101853.34
2019-06-26T01:00:09.262Z,101858.38
2019-06-26T01:02:38.821Z,101861.10
2019-06-26T01:05:10.368Z,101858.50
2019-06-26T01:07:39.792Z,101863.45
2019-06-26T01:10:10.129Z,101862.19
2019-06-26T01:12:39.526Z,101862.66
2019-06-26T01:15:09.989Z,101860.46
2019-06-26T01:17:39.468Z,101865.28
2019-06-26T01:20:09.226Z,101872.92
2019-06-26T01:22:38.559Z,101868.13
2019-06-26T01:25:08.235Z,101867.91
2019-06-26T01:27:37.544Z,101873.34
2019-06-26T01:30:07.548Z,101872.40
2019-06-26T01:32:36.861Z,101870.36
2019-06-26T01:35:06.343Z,101873.62
2019-06-26T01:37:35.664Z,101869.64
2019-06-26T01:40:05.305Z,101876.45
2019-06-26T01:42:34.624Z,101870.00
2019-06-26T01:45:03.910Z,101869.39
2019-06-26T01:47:33.226Z,101866.64
2019-06-26T01:50:02.500Z,101879.53
2019-06-26T01:52:31.809Z,101871.77
2019-06-26T01:55:01.099Z,101876.22
2019-06-26T01:57:30.425Z,101881.17
2019-06-26T01:59:59.713Z,101883.27
2019-06-26T02:02:29.074Z,101881.53
2019-06-26T02:04:58.391Z,101883.11
2019-06-26T02:07:27.707Z,101886.44
2019-06-26T02:09:57.134Z,101886.30
2019-06-26T02:12:26.474Z,101890.18
2019-06-26T02:14:55.795Z,101893.38
2019-06-26T02:17:25.159Z,101895.10
2019-06-26T02:19:54.444Z,101898.70
2019-06-26T02:22:23.780Z,101896.10
2019-06-26T02:24:53.078Z,101898.41
2019-06-26T02:27:22.472Z,101899.14
2019-06-26T02:29:51.804Z,101904.30
2019-06-26T02:32:21.129Z,101914.81
2019-06-26T02:34:50.764Z,101914.59
2019-06-26T02:37:20.180Z,101925.92
2019-06-26T02:39:49.511Z,101920.81
2019-06-26T02:42:18.919Z,101920.67
2019-06-26T02:44:53.790Z,101923.70
2019-06-26T02:47:20.954Z,101910.60
2019-06-26T02:49:50.445Z,101924.17
2019-06-26T02:52:19.813Z,101924.56
2019-06-26T02:54:49.103Z,101917.77
2019-06-26T02:57:18.442Z,101923.39
2019-06-26T02:59:47.746Z,101923.83
2019-06-26T03:02:17.045Z,101925.83
2019-06-26T03:04:46.368Z,101926.17
2019-06-26T03:07:15.686Z,101929.78
2019-06-26T03:09:45.062Z,101936.30
2019-06-26T03:12:14.378Z,101942.34
2019-06-26T03:14:43.786Z,101942.16
2019-06-26T03:17:13.173Z,101939.92
2019-06-26T03:19:42.584Z,101942.85
2019-06-26T03:22:11.937Z,101955.73
2019-06-26T03:24:41.210Z,101955.73
2019-06-26T03:27:10.500Z,101963.84
2019-06-26T03:29:39.860Z,101968.34
2019-06-26T03:32:09.160Z,101978.47
2019-06-26T03:34:38.493Z,101975.28
2019-06-26T03:37:07.818Z,101979.09
2019-06-26T03:39:37.143Z,101978.13
2019-06-26T03:42:06.467Z,101986.42
2019-06-26T03:44:35.813Z,101986.42
2019-06-26T03:47:05.121Z,101987.23
2019-06-26T03:49:34.441Z,101988.08
2019-06-26T03:52:03.788Z,102000.53
2019-06-26T03:54:33.228Z,101996.19
2019-06-26T03:57:02.511Z,102002.16
2019-06-26T03:59:31.816Z,102002.16
2019-06-26T04:02:01.182Z,101995.93
2019-06-26T04:04:30.488Z,102006.10
2019-06-26T04:06:59.831Z,102012.47
2019-06-26T04:09:29.129Z,102010.44
2019-06-26T04:11:58.454Z,102016.54
2019-06-26T04:14:27.770Z,102022.29
2019-06-26T04:16:57.144Z,102022.29
2019-06-26T04:19:26.450Z,102034.56
2019-06-26T04:21:55.757Z,102036.66
2019-06-26T04:24:25.062Z,102036.66
2019-06-26T04:26:54.433Z,102042.27
2019-06-26T04:29:23.809Z,102043.92
2019-06-26T04:31:53.168Z,102042.16
2019-06-26T04:34:22.652Z,102034.84
2019-06-26T04:36:52.080Z,102037.02
2019-06-26T04:39:21.662Z,102045.11
2019-06-26T04:41:51.104Z,102045.11
2019-06-26T04:44:20.421Z,102041.90
2019-06-26T04:46:50.831Z,102040.13
2019-06-26T04:49:20.192Z,102040.30
2019-06-26T04:51:49.519Z,102042.84
2019-06-26T04:54:18.885Z,102049.69
2019-06-26T04:56:48.259Z,102047.02
2019-06-26T04:59:19.715Z,102051.55
2019-06-26T05:01:49.004Z,102059.34
2019-06-26T05:04:18.356Z,102069.31
2019-06-26T05:06:47.672Z,102061.75
2019-06-26T05:09:17.126Z,102069.83
2019-06-26T05:11:46.564Z,102065.27
2019-06-26T05:14:15.877Z,102074.95
2019-06-26T05:16:45.193Z,102077.84
2019-06-26T05:19:14.741Z,102088.61
2019-06-26T05:21:44.151Z,102084.27
2019-06-26T05:24:13.397Z,102079.58
2019-06-26T05:26:42.727Z,102086.25
2019-06-26T05:29:12.098Z,102080.92
2019-06-26T05:31:41.410Z,102085.77
2019-06-26T05:34:11.277Z,102093.43
2019-06-26T05:36:40.631Z,102099.44
2019-06-26T05:39:10.113Z,102101.06
2019-06-26T05:41:39.420Z,102104.45
2019-06-26T05:44:08.738Z,102096.04
2019-06-26T05:46:38.056Z,102099.57
2019-06-26T05:49:07.389Z,102104.72
2019-06-26T05:51:36.867Z,102103.63
2019-06-26T05:54:06.269Z,102101.66
2019-06-26T05:56:35.572Z,102116.25
2019-06-26T05:59:04.910Z,102111.65
2019-06-26T06:01:34.351Z,102119.34
2019-06-26T06:04:03.678Z,102125.61
2019-06-26T06:06:41.803Z,102125.91
2019-06-26T06:09:05.667Z,102120.80
2019-06-26T06:11:34.982Z,102117.92
2019-06-26T06:14:04.361Z,102130.31
2019-06-26T06:16:46.894Z,102130.42
2019-06-26T06:19:04.721Z,102135.55
2019-06-26T06:21:34.023Z,102138.82
2019-06-26T06:24:03.373Z,102133.58
2019-06-26T06:26:32.667Z,102141.53
2019-06-26T06:29:02.148Z,102138.25
2019-06-26T06:31:31.504Z,102145.76
2019-06-26T06:34:00.828Z,102137.52
2019-06-26T06:36:30.159Z,102147.20
2019-06-26T06:38:59.460Z,102152.02
2019-06-26T06:41:28.745Z,102150.09
2019-06-26T06:43:58.062Z,102144.91
2019-06-26T06:46:27.342Z,102148.20
2019-06-26T06:48:56.647Z,102152.17
2019-06-26T06:51:25.973Z,102148.02
2019-06-26T06:53:55.375Z,102149.77
2019-06-26T06:56:24.689Z,102157.25
2019-06-26T06:58:53.985Z,102161.04
2019-06-26T07:01:23.283Z,102166.27
2019-06-26T07:03:52.603Z,102174.09
2019-06-26T07:06:21.939Z,102171.98
2019-06-26T07:08:51.242Z,102172.94
2019-06-26T07:11:20.603Z,102172.21
2019-06-26T07:13:49.883Z,102171.06
2019-06-26T07:16:19.237Z,102178.41
2019-06-26T07:18:48.514Z,102177.53
2019-06-26T07:21:17.862Z,102184.86
2019-06-26T07:23:47.160Z,102183.08
2019-06-26T07:26:16.647Z,102182.86
2019-06-26T07:28:45.940Z,102178.60
2019-06-26T07:31:15.274Z,102176.73
2019-06-26T07:33:44.624Z,102180.00
2019-06-26T07:36:13.960Z,102178.23
2019-06-26T07:38:43.230Z,102189.67
2019-06-26T07:41:12.654Z,102182.84
2019-06-26T07:43:41.955Z,102191.59
2019-06-26T07:46:11.315Z,102199.77
2019-06-26T07:48:40.603Z,102192.50
2019-06-26T08:25:56.909Z,102236.05
2019-06-26T08:28:26.216Z,102241.61
2019-06-26T08:30:55.463Z,102232.17
2019-06-26T08:33:24.751Z,102237.19
2019-06-26T08:35:54.176Z,102239.90
2019-06-26T08:38:23.456Z,102247.70
2019-06-26T08:40:52.697Z,102245.05
2019-06-26T08:43:21.949Z,102237.33
2019-06-26T08:45:51.207Z,102246.23
2019-06-26T08:48:38.331Z,102240.56
2019-06-26T08:50:51.501Z,102240.45
2019-06-26T08:53:20.761Z,102249.52
2019-06-26T08:55:49.992Z,102249.15
2019-06-26T08:58:19.268Z,102261.45
2019-06-26T09:00:48.514Z,102263.05
2019-06-26T09:03:17.887Z,102262.33
2019-06-26T09:05:48.623Z,102258.39
2019-06-26T09:08:18.192Z,102262.14
2019-06-26T09:10:47.518Z,102259.31
2019-06-26T09:13:16.811Z,102259.50
2019-06-26T09:15:49.557Z,102258.26
2019-06-26T09:18:34.057Z,102258.72
2019-06-26T09:20:48.042Z,102261.16
2019-06-26T09:23:17.303Z,102253.39
2019-06-26T09:25:46.708Z,102260.11
2019-06-26T09:28:15.980Z,102255.09
2019-06-26T09:30:45.272Z,102251.19
2019-06-26T09:33:14.563Z,102254.31
2019-06-26T09:35:43.861Z,102264.02
2019-06-26T09:38:13.731Z,102259.01
2019-06-26T09:40:43.009Z,102262.57
2019-06-26T09:43:12.326Z,102257.39
2019-06-26T09:45:41.611Z,102270.27
2019-06-26T09:48:11.393Z,102272.16
2019-06-26T09:50:40.738Z,102263.23
2019-06-26T09:53:10.037Z,102270.36
2019-06-26T09:55:39.435Z,102273.06
2019-06-26T09:58:08.899Z,102286.14
2019-06-26T10:00:38.559Z,102278.44
2019-06-26T10:03:07.873Z,102279.25
2019-06-26T10:05:37.375Z,102278.21
2019-06-26T10:08:06.608Z,102273.03
2019-06-26T10:10:35.979Z,102273.81
2019-06-26T10:13:05.268Z,102289.05
2019-06-26T10:15:34.601Z,102287.29
2019-06-26T10:18:03.990Z,102289.36
2019-06-26T10:20:34.139Z,102292.69
2019-06-26T10:23:03.403Z,102292.94
2019-06-26T10:25:32.667Z,102296.98
2019-06-26T10:28:02.575Z,102299.45
2019-06-26T10:30:31.842Z,102293.33
2019-06-26T10:33:01.131Z,102291.98
2019-06-26T10:35:30.697Z,102293.48
2019-06-26T10:38:00.070Z,102293.05
2019-06-26T10:40:29.385Z,102297.97
2019-06-26T10:42:59.303Z,102300.98
2019-06-26T10:45:28.537Z,102302.89
2019-06-26T10:47:57.810Z,102306.44
2019-06-26T10:50:27.134Z,102302.13
2019-06-26T10:52:56.433Z,102302.65
2019-06-26T10:55:25.784Z,102299.71
2019-06-26T10:57:55.111Z,102296.44
2019-06-26T11:00:26.142Z,102290.05
2019-06-26T11:02:55.466Z,102291.97
2019-06-26T11:05:24.925Z,102302.31
2019-06-26T11:07:54.343Z,102293.47
2019-06-26T11:10:23.578Z,102288.59
2019-06-26T11:12:52.849Z,102286.79
2019-06-26T11:15:25.355Z,102294.45
2019-06-26T11:17:54.812Z,102288.17
2019-06-26T11:20:24.211Z,102284.97
2019-06-26T11:22:53.619Z,102290.81
2019-06-26T11:25:22.940Z,102291.61
2019-06-26T11:27:52.226Z,102291.16
2019-06-26T11:30:22.105Z,102289.30
2019-06-26T11:32:51.377Z,102296.25
2019-06-26T11:35:20.666Z,102298.08
2019-06-26T11:37:50.169Z,102300.04
2019-06-26T11:40:19.757Z,102299.44
2019-06-26T11:42:49.030Z,102303.33
2019-06-26T11:45:18.638Z,102307.55
2019-06-26T11:47:47.910Z,102300.52
2019-06-26T11:50:18.332Z,102307.63
2019-06-26T11:52:47.573Z,102307.86
2019-06-26T11:55:17.549Z,102302.58
2019-06-26T11:57:46.954Z,102292.83
2019-06-26T12:00:17.082Z,102284.23
2019-06-26T12:02:49.421Z,102277.90
2019-06-26T12:05:19.084Z,102278.69
2019-06-26T12:07:48.333Z,102279.41
2019-06-26T12:10:18.207Z,102278.28
2019-06-26T12:12:47.514Z,102281.12
2019-06-26T12:15:17.477Z,102275.84
2019-06-26T12:17:46.769Z,102279.40
2019-06-26T12:20:19.162Z,102283.73
2019-06-26T12:22:47.422Z,102277.33
2019-06-26T12:25:17.645Z,102278.61
2019-06-26T12:27:46.940Z,102278.55
2019-06-26T12:30:16.339Z,102279.20
2019-06-26T12:33:01.588Z,102280.06
2019-06-26T12:35:16.812Z,102282.77
2019-06-26T12:37:46.581Z,102273.98
2019-06-26T12:40:16.240Z,102274.92
2019-06-26T12:42:45.502Z,102272.81
2019-06-26T12:45:14.997Z,102274.67
2019-06-26T12:47:44.261Z,102276.50
2019-06-26T12:50:14.259Z,102282.53
2019-06-26T12:52:43.536Z,102281.31
2019-06-26T12:55:12.798Z,102279.42
2019-06-26T12:57:42.040Z,102277.33
2019-06-26T13:00:11.863Z,102274.86
2019-06-26T13:02:41.251Z,102273.53
2019-06-26T13:05:10.650Z,102272.62
2019-06-26T13:07:39.900Z,102272.23
2019-06-26T13:10:11.083Z,102270.01
2019-06-26T13:12:40.327Z,102273.00
2019-06-26T13:15:10.295Z,102263.64
2019-06-26T13:17:39.545Z,102266.66
2019-06-26T13:20:10.348Z,102261.16
2019-06-26T13:22:39.909Z,102258.47
2019-06-26T13:25:09.260Z,102260.38
2019-06-26T13:27:38.528Z,102249.51
2019-06-26T13:30:08.515Z,102253.20
2019-06-26T13:32:37.741Z,102250.97
2019-06-26T13:35:08.030Z,102249.03
2019-06-26T13:37:40.417Z,102249.49
2019-06-26T13:40:09.863Z,102242.86
2019-06-26T13:42:39.141Z,102243.27
2019-06-26T13:45:08.676Z,102243.27
2019-06-26T13:47:37.951Z,102249.78
2019-06-26T13:50:07.689Z,102245.81
2019-06-26T13:52:37.060Z,102254.00
2019-06-26T13:55:06.390Z,102256.56
2019-06-26T13:57:38.560Z,102246.94
2019-06-26T14:00:08.217Z,102257.03
2019-06-26T14:02:37.585Z,102243.59
2019-06-26T14:05:07.305Z,102247.59
2019-06-26T14:07:36.612Z,102252.78
2019-06-26T14:10:06.636Z,102248.08
2019-06-26T14:12:36.231Z,102245.36
2019-06-26T14:15:05.670Z,102244.88
2019-06-26T14:17:34.939Z,102235.58
2019-06-26T14:20:04.591Z,102238.87
2019-06-26T14:22:33.873Z,102227.89
2019-06-26T14:25:03.139Z,102227.74
2019-06-26T14:27:33.156Z,102238.41
2019-06-26T14:30:02.385Z,102228.46
2019-06-26T14:32:31.682Z,102237.11
2019-06-26T14:35:00.942Z,102224.05
2019-06-26T14:37:30.217Z,102220.02
2019-06-26T14:39:59.466Z,102219.09
2019-06-26T14:42:28.800Z,102223.09
2019-06-26T14:44:58.038Z,102222.70
2019-06-26T14:47:27.312Z,102217.48
2019-06-26T14:49:56.595Z,102215.09
2019-06-26T14:52:26.041Z,102214.95
2019-06-26T14:54:55.351Z,102214.48
2019-06-26T14:57:27.745Z,102210.61
2019-06-26T14:59:57.028Z,102208.47
2019-06-26T15:02:26.356Z,102208.80
2019-06-26T15:04:55.623Z,102206.92
2019-06-26T15:07:25.003Z,102190.55
2019-06-26T15:09:54.369Z,102199.07
2019-06-26T15:12:23.627Z,102197.63
2019-06-26T15:14:52.894Z,102209.89
2019-06-26T15:17:22.146Z,102200.04
2019-06-26T15:19:51.450Z,102205.44
2019-06-26T15:22:20.702Z,102200.31
2019-06-26T15:24:50.039Z,102203.90
2019-06-26T15:27:19.326Z,102204.09
2019-06-26T15:29:48.633Z,102203.64
2019-06-26T15:32:17.930Z,102196.72
2019-06-26T15:34:47.326Z,102197.30
2019-06-26T15:37:16.632Z,102197.94
2019-06-26T15:39:46.060Z,102196.41
2019-06-26T15:42:15.359Z,102200.05
2019-06-26T15:44:44.699Z,102203.69
2019-06-26T15:47:13.955Z,102198.20
2019-06-26T15:49:43.251Z,102208.52
2019-06-26T15:52:15.288Z,102196.88
2019-06-26T15:54:43.582Z,102200.93
2019-06-26T15:57:13.072Z,102202.92
2019-06-26T15:59:42.367Z,102206.81
2019-06-26T16:02:11.648Z,102205.72
2019-06-26T16:04:40.933Z,102204.09
2019-06-26T16:07:10.179Z,102210.77
2019-06-26T16:09:39.466Z,102209.85
2019-06-26T16:12:08.691Z,102220.98
2019-06-26T16:14:37.955Z,102205.85
2019-06-26T16:17:13.570Z,102213.59
2019-06-26T16:19:42.848Z,102214.59
2019-06-26T16:22:12.107Z,102217.39
2019-06-26T16:24:41.398Z,102218.39
2019-06-26T16:27:10.656Z,102216.78
2019-06-26T16:29:39.936Z,102216.95
2019-06-26T16:32:09.187Z,102223.35
2019-06-26T16:34:38.446Z,102217.14
2019-06-26T16:37:07.748Z,102218.75
2019-06-26T16:39:37.017Z,102219.55
2019-06-26T16:42:06.289Z,102217.39
2019-06-26T16:44:35.567Z,102223.22
2019-06-26T16:47:04.844Z,102216.60
2019-06-26T16:49:34.088Z,102220.80
2019-06-26T16:52:05.159Z,102223.52
2019-06-26T16:54:34.519Z,102221.59
2019-06-26T16:57:03.810Z,102220.98
2019-06-26T16:59:33.108Z,102236.13
2019-06-26T17:02:02.430Z,102232.77
2019-06-26T17:04:31.801Z,102231.70
2019-06-26T17:07:01.173Z,102238.36
2019-06-26T17:09:30.512Z,102231.97
2019-06-26T17:11:59.794Z,102238.75
2019-06-26T17:14:29.043Z,102236.75
2019-06-26T17:16:58.410Z,102249.73
2019-06-26T17:19:27.780Z,102246.92
2019-06-26T17:21:57.286Z,102246.00
2019-06-26T17:24:26.682Z,102252.14
2019-06-26T17:26:59.822Z,102254.01
2019-06-26T17:29:29.235Z,102254.78
2019-06-26T17:31:58.545Z,102255.26
2019-06-26T17:34:27.875Z,102263.70
2019-06-26T17:36:57.157Z,102258.11
2019-06-26T17:39:26.428Z,102253.63
2019-06-26T17:41:55.719Z,102264.64
2019-06-26T17:44:24.992Z,102263.26
2019-06-26T17:46:56.115Z,102270.91
2019-06-26T17:49:25.420Z,102267.37
2019-06-26T17:51:54.648Z,102264.50
2019-06-26T17:54:23.896Z,102277.83
2019-06-26T17:56:54.247Z,102273.81
2019-06-26T17:59:23.515Z,102273.60
2019-06-26T18:01:53.014Z,102280.72
2019-06-26T18:04:22.309Z,102281.83
2019-06-26T18:06:51.696Z,102281.37
2019-06-26T18:09:21.087Z,102282.73
2019-06-26T18:11:50.445Z,102284.08
2019-06-26T18:14:19.750Z,102284.88
2019-06-26T18:16:49.096Z,102289.78
2019-06-26T18:19:18.453Z,102288.88
2019-06-26T18:21:47.745Z,102280.16
2019-06-26T18:24:17.027Z,102286.30
2019-06-26T18:26:46.317Z,102283.99
2019-06-26T18:29:15.631Z,102275.47
2019-06-26T18:31:44.927Z,102301.78
2019-06-26T18:34:14.208Z,102289.44
2019-06-26T18:36:43.520Z,102301.51
2019-06-26T18:39:12.812Z,102301.88
2019-06-26T18:41:42.086Z,102299.06
2019-06-26T18:44:11.413Z,102298.52
2019-06-26T18:46:40.705Z,102301.13
2019-06-26T18:49:10.051Z,102300.39
2019-06-26T18:51:39.314Z,102301.59
2019-06-26T18:54:08.626Z,102304.31
2019-06-26T18:56:39.057Z,102292.75
2019-06-26T18:59:08.471Z,102309.28
2019-06-26T19:01:37.749Z,102310.63
2019-06-26T19:04:07.032Z,102311.40
2019-06-26T19:06:36.449Z,102308.53
2019-06-26T19:09:07.327Z,102315.77
2019-06-26T19:11:36.765Z,102316.14
2019-06-26T19:14:06.103Z,102305.88
2019-06-26T19:16:36.417Z,102310.12
2019-06-26T19:19:06.015Z,102308.17
2019-06-26T19:21:37.094Z,102312.76
2019-06-26T19:24:10.478Z,102315.97
2019-06-26T19:26:37.658Z,102314.16
2019-06-26T19:29:06.988Z,102315.48
2019-06-26T19:31:36.256Z,102320.25
2019-06-26T19:34:05.545Z,102326.27
2019-06-26T19:36:48.987Z,102325.39
2019-06-26T19:39:07.157Z,102325.60
2019-06-26T19:41:36.573Z,102324.66
2019-06-26T19:44:08.865Z,102324.92
2019-06-26T19:46:36.878Z,102329.42
2019-06-26T19:49:06.279Z,102332.86
2019-06-26T19:51:35.553Z,102335.00
2019-06-26T19:54:04.874Z,102337.79
2019-06-26T19:56:34.344Z,102348.33
2019-06-26T19:59:03.588Z,102343.39
2019-06-26T20:01:32.885Z,102347.36
2019-06-26T20:04:02.168Z,102352.17
2019-06-26T20:06:31.428Z,102354.17
2019-06-26T20:09:00.714Z,102362.61
2019-06-26T20:11:30.019Z,102366.45
2019-06-26T20:13:59.315Z,102371.14
2019-06-26T20:16:28.642Z,102371.14
2019-06-26T20:18:57.924Z,102376.00
2019-06-26T20:21:27.240Z,102369.83
2019-06-26T20:23:58.226Z,102373.30
2019-06-26T20:26:27.576Z,102389.00
2019-06-26T20:28:56.885Z,102373.19
2019-06-26T20:31:26.278Z,102373.19
2019-06-26T20:33:55.612Z,102384.11
2019-06-26T20:36:24.940Z,102388.84
2019-06-26T20:38:54.322Z,102388.88
2019-06-26T20:41:23.612Z,102386.11
2019-06-26T20:43:52.889Z,102395.52
2019-06-26T20:46:22.195Z,102398.68
2019-06-26T20:48:51.465Z,102402.94
2019-06-26T20:51:21.128Z,102404.25
2019-06-26T20:53:51.335Z,102403.77
2019-06-26T20:56:20.618Z,102406.80
2019-06-26T20:58:49.926Z,102413.44
2019-06-26T21:01:20.237Z,102413.31
2019-06-26T21:07:21.157Z,102424.81
2019-06-26T21:09:50.530Z,102422.80
2019-06-26T21:12:24.174Z,102425.09
2019-06-26T21:14:55.313Z,102430.95
2019-06-26T21:17:25.757Z,102433.85
2019-06-26T21:19:56.701Z,102435.88
2019-06-26T21:22:25.981Z,102440.52
2019-06-26T21:24:55.853Z,102439.60
2019-06-26T21:28:14.771Z,102452.53
2019-06-26T21:30:44.674Z,102453.20
2019-06-26T21:33:14.078Z,102451.48
2019-06-26T21:36:12.418Z,102461.58
2019-06-26T21:38:42.340Z,102464.91
2019-06-26T21:41:14.456Z,102460.37
2019-06-26T21:43:43.852Z,102472.11
2019-06-26T21:46:13.140Z,102469.69
2019-06-26T21:52:11.957Z,102471.56
2019-06-26T21:54:41.234Z,102471.64
2019-06-26T21:57:10.524Z,102478.45
2019-06-26T21:59:39.788Z,102477.66
2019-06-26T22:03:12.417Z,102482.88
2019-06-26T22:05:41.665Z,102488.08
2019-06-26T22:12:19.189Z,102495.22
2019-06-26T22:15:23.795Z,102490.73
2019-06-26T22:17:53.063Z,102496.03
2019-06-26T22:20:23.358Z,102495.78
2019-06-26T22:22:53.270Z,102492.29
2019-06-26T22:25:22.643Z,102488.08
2019-06-26T22:27:52.032Z,102493.12
2019-06-26T22:30:21.485Z,102497.72
2019-06-26T22:32:50.861Z,102497.37
2019-06-26T22:35:21.338Z,102501.45
2019-06-26T22:37:50.594Z,102502.75
2019-06-26T22:40:19.846Z,102506.98
2019-06-26T22:42:49.163Z,102500.87
2019-06-26T22:45:18.495Z,102507.24
2019-06-26T22:47:47.756Z,102512.66
2019-06-26T22:50:17.031Z,102508.16
2019-06-26T22:52:46.290Z,102509.36
2019-06-26T22:55:15.697Z,102514.95
2019-06-26T22:57:44.963Z,102518.06
2019-06-26T23:00:15.804Z,102525.27
2019-06-26T23:02:45.080Z,102531.39
2019-06-26T23:05:14.337Z,102520.89
2019-06-26T23:07:43.554Z,102519.69
2019-06-26T23:10:13.020Z,102525.68
2019-06-26T23:12:42.264Z,102529.83
2019-06-26T23:15:13.552Z,102519.04
2019-06-26T23:17:42.796Z,102532.95
2019-06-26T23:20:12.480Z,102544.31
2019-06-26T23:22:41.721Z,102540.80
2019-06-26T23:25:11.275Z,102551.61
2019-06-26T23:27:40.516Z,102551.61
2019-06-26T23:30:16.876Z,102546.91
2019-06-26T23:32:46.166Z,102543.61
2019-06-26T23:35:15.446Z,102554.89
2019-06-26T23:37:44.713Z,102553.01
2019-06-26T23:40:14.087Z,102557.41
2019-06-26T23:42:43.353Z,102566.40
2019-06-26T23:45:12.934Z,102557.05
2019-06-26T23:47:42.191Z,102558.30
2019-06-26T23:50:11.766Z,102571.80
2019-06-26T23:52:41.009Z,102572.39
2019-06-26T23:55:10.308Z,102563.87
2019-06-26T23:57:57.699Z,102566.64
